Terminal Aerodrome Forecast
Issued by NWS Memphis, TN

Home | Current Version | Previous Version | Text Only | Print | Product List | Glossary On
Versions: 1 2 3 4 5 6 7 8 9 10 11 12 13 14 15 16 17 18 19 20
984
FTUS44 KMEG 271123
TAFJBR
TAF
KJBR 271123Z 2712/2812 17010KT P6SM VCSH SCT025 OVC040
      TEMPO 2712/2715 -SHRA BKN025
     FM271600 18012G18KT P6SM VCSH BKN040 BKN150
     FM272100 18012KT 6SM -TSRA SCT025 OVC040CB
      TEMPO 2723/2803 VRB20G30KT 1SM +TSRA OVC015CB
     FM280600 19007KT P6SM -SHRA VCTS SCT015 OVC030CB=

USA.gov is the U.S. government's official web portal to all federal, state and local government web resources and services.